Time;durP1;ratioP1;P1;durP2;ratioP2;P2;SDS_P1;SDS_P2;PMS_P1;PMS_P2;Temp;Humidity;BMP_temperature;BMP_pressure;BME280_temperature;BME280_humidity;BME280_pressure;Samples;Min_cycle;Max_cycle;Signal;HPM_P1;HPM_P2
2024/02/09 00:00:16;;;;;;;21.20;11.13;;;21.90;99.90;;;;;;4937549;29;20444;-60
2024/02/09 00:02:42;;;;;;;22.95;10.13;;;21.90;99.90;;;;;;4937184;29;20441;-60
2024/02/09 00:05:09;;;;;;;24.42;11.48;;;21.90;99.90;;;;;;4937041;29;20036;-63
2024/02/09 00:07:35;;;;;;;23.20;9.63;;;21.90;99.90;;;;;;4936776;29;20098;-62
2024/02/09 00:10:01;;;;;;;22.00;10.82;;;21.90;99.90;;;;;;4937429;29;20114;-63
2024/02/09 00:12:27;;;;;;;26.45;10.50;;;21.90;99.90;;;;;;4937099;29;20032;-63
2024/02/09 00:14:53;;;;;;;24.73;10.55;;;21.90;99.90;;;;;;4936883;29;20523;-62
2024/02/09 00:17:19;;;;;;;23.50;10.32;;;21.90;99.90;;;;;;4936754;29;20035;-61
2024/02/09 00:19:46;;;;;;;19.33;8.68;;;21.90;99.90;;;;;;4919035;29;20465;-61
2024/02/09 00:22:12;;;;;;;20.98;9.65;;;21.90;99.90;;;;;;4936811;29;20023;-62
2024/02/09 00:24:42;;;;;;;21.50;10.45;;;21.90;99.90;;;;;;4919535;29;20035;-62
2024/02/09 00:27:11;;;;;;;19.77;9.93;;;21.90;99.90;;;;;;4924811;29;20046;-67
2024/02/09 00:29:37;;;;;;;22.58;10.13;;;21.90;99.90;;;;;;4919657;29;20028;-67
2024/02/09 00:32:06;;;;;;;20.15;10.75;;;21.90;99.90;;;;;;4936614;29;20027;-63
2024/02/09 00:34:34;;;;;;;24.40;9.82;;;21.80;99.90;;;;;;4919988;29;20030;-61
2024/02/09 00:37:00;;;;;;;;;;;21.90;99.90;;;;;;4936996;29;20066;-65
2024/02/09 00:39:27;;;;;;;22.40;9.13;;;21.90;99.90;;;;;;4935306;29;19918;-61
2024/02/09 00:41:53;;;;;;;21.83;10.40;;;21.80;99.90;;;;;;4936754;29;20031;-64
2024/02/09 00:44:19;;;;;;;26.63;10.35;;;21.90;99.90;;;;;;4936372;29;20495;-62
2024/02/09 00:46:49;;;;;;;17.95;9.35;;;21.80;99.90;;;;;;4936768;29;20039;-62
2024/02/09 00:49:15;;;;;;;20.17;9.45;;;21.80;99.90;;;;;;4936555;29;20027;-63
2024/02/09 00:51:41;;;;;;;20.08;9.65;;;21.80;99.90;;;;;;4936652;29;20074;-61
2024/02/09 00:54:07;;;;;;;21.15;10.02;;;21.80;99.90;;;;;;4936350;29;20111;-62
2024/02/09 00:56:33;;;;;;;19.48;9.82;;;21.80;99.90;;;;;;4936642;29;20443;-64
2024/02/09 00:59:01;;;;;;;20.15;8.55;;;21.80;99.90;;;;;;4935868;29;20111;-62
2024/02/09 01:01:28;;;;;;;23.42;9.70;;;21.80;99.90;;;;;;4955501;23;20522;-55
2024/02/09 01:03:53;;;;;;;25.27;8.65;;;21.80;99.90;;;;;;4955326;29;20035;-57
2024/02/09 01:06:21;;;;;;;24.23;9.15;;;21.80;99.90;;;;;;4955425;29;20397;-55
2024/02/09 01:08:47;;;;;;;21.27;8.80;;;21.80;99.90;;;;;;4955075;29;20032;-57
2024/02/09 01:11:14;;;;;;;19.75;9.02;;;21.80;99.90;;;;;;4938144;29;20495;-56
2024/02/09 02:46:45;;;;;;;21.10;6.25;;;21.60;99.90;;;;;;4953599;29;20031;-53
2024/02/09 03:05:38;;;;;;;22.05;5.70;;;21.40;99.90;;;;;;4949881;29;20042;-55
2024/02/09 03:08:04;;;;;;;21.52;7.28;;;21.50;99.90;;;;;;4953041;29;20102;-55
2024/02/09 03:10:30;;;;;;;18.50;5.68;;;21.40;99.90;;;;;;4953075;29;20119;-55
2024/02/09 03:12:56;;;;;;;18.75;5.60;;;21.40;99.90;;;;;;4953364;29;20102;-62
2024/02/09 03:15:23;;;;;;;13.00;4.22;;;21.40;99.90;;;;;;4952177;29;20086;-65
2024/02/09 03:17:51;;;;;;;20.80;5.53;;;21.50;99.90;;;;;;4952850;29;20024;-65
2024/02/09 03:20:17;;;;;;;;;;;21.40;99.90;;;;;;4953914;29;20031;-65
2024/02/09 03:22:44;;;;;;;19.77;5.53;;;21.40;99.90;;;;;;4933910;29;19954;-65
2024/02/09 03:25:10;;;;;;;17.80;5.53;;;21.40;99.90;;;;;;4953055;29;20042;-66
2024/02/09 03:27:37;;;;;;;21.10;5.45;;;21.40;99.90;;;;;;4935647;29;20031;-65
2024/02/09 03:30:05;;;;;;;16.02;4.75;;;21.40;99.90;;;;;;4932705;29;20411;-66
2024/02/09 03:32:34;;;;;;;18.80;5.38;;;21.40;99.90;;;;;;4950427;28;20054;-63
2024/02/09 03:35:02;;;;;;;17.27;5.38;;;21.30;99.90;;;;;;4953418;29;20098;-63
2024/02/09 03:37:29;;;;;;;18.80;5.65;;;21.30;99.90;;;;;;4953324;29;20087;-63
2024/02/09 03:39:57;;;;;;;17.45;5.70;;;21.30;99.90;;;;;;4953618;29;20124;-66
2024/02/09 03:42:23;;;;;;;14.95;5.28;;;21.30;99.90;;;;;;4952388;29;20027;-67
2024/02/09 03:44:50;;;;;;;18.17;4.97;;;21.30;99.90;;;;;;4951076;29;20086;-66
2024/02/09 03:47:19;;;;;;;22.23;5.15;;;21.30;99.90;;;;;;4953651;29;20029;-65
2024/02/09 03:49:49;;;;;;;24.05;5.53;;;21.30;99.90;;;;;;4953652;29;20023;-64
2024/02/09 03:52:20;;;;;;;19.38;5.38;;;21.30;99.90;;;;;;4953702;29;20101;-65
2024/02/09 03:54:51;;;;;;;21.75;5.30;;;21.30;99.90;;;;;;4956315;28;20039;-67
2024/02/09 03:57:23;;;;;;;19.58;5.57;;;21.20;99.90;;;;;;4957088;29;20158;-67
2024/02/09 03:59:50;;;;;;;22.70;5.28;;;21.20;99.90;;;;;;4956956;29;20027;-67
2024/02/09 04:02:17;;;;;;;16.42;5.20;;;21.20;99.90;;;;;;4939961;29;20407;-67
2024/02/09 04:04:43;;;;;;;20.97;6.00;;;21.20;99.90;;;;;;4957026;29;20360;-62
2024/02/09 04:07:09;;;;;;;23.75;6.38;;;21.20;99.90;;;;;;4957027;29;20070;-63
2024/02/09 04:09:36;;;;;;;15.55;4.75;;;21.20;99.90;;;;;;4956781;29;20027;-62
2024/02/09 04:12:03;;;;;;;22.35;5.68;;;21.20;99.90;;;;;;4956750;29;20027;-63
2024/02/09 04:14:29;;;;;;;26.83;5.83;;;21.10;99.90;;;;;;4956559;29;20027;-64
2024/02/09 04:16:56;;;;;;;18.73;6.13;;;21.10;99.90;;;;;;4956664;29;20032;-67
2024/02/09 04:19:23;;;;;;;22.70;5.20;;;21.10;99.90;;;;;;4956620;29;20118;-67
2024/02/09 04:21:49;;;;;;;21.45;5.60;;;21.10;99.90;;;;;;4956572;29;20023;-66
2024/02/09 04:24:23;;;;;;;20.92;5.38;;;21.10;99.90;;;;;;4956441;29;20043;-66
2024/02/09 04:26:52;;;;;;;24.83;6.22;;;21.10;99.90;;;;;;4956318;29;20027;-67
2024/02/09 04:29:19;;;;;;;18.65;5.85;;;21.10;99.90;;;;;;4956531;29;20023;-65
2024/02/09 04:31:45;;;;;;;26.13;5.22;;;21.00;99.90;;;;;;4939443;29;20078;-64
2024/02/09 04:34:12;;;;;;;25.15;4.70;;;21.00;99.90;;;;;;4939276;29;20024;-64
2024/02/09 04:36:42;;;;;;;19.58;5.07;;;21.00;99.90;;;;;;4956077;29;20507;-65
2024/02/09 04:39:10;;;;;;;15.65;4.75;;;21.00;99.90;;;;;;4938923;29;20396;-63
2024/02/09 04:41:49;;;;;;;21.45;4.93;;;21.00;99.90;;;;;;4954989;29;20031;-63
2024/02/09 04:44:14;;;;;;;22.08;5.35;;;21.00;99.90;;;;;;4956218;29;20123;-65
2024/02/09 04:46:42;;;;;;;20.55;4.60;;;21.00;99.90;;;;;;4956002;29;20493;-65
2024/02/09 04:49:11;;;;;;;;;;;21.00;99.90;;;;;;4956393;29;20027;-67
2024/02/09 04:51:44;;;;;;;21.33;5.88;;;21.00;99.90;;;;;;4956097;29;19941;-67
2024/02/09 04:54:10;;;;;;;24.17;5.18;;;21.00;99.90;;;;;;4955987;29;20038;-68
2024/02/09 04:56:36;;;;;;;17.00;4.55;;;20.90;99.90;;;;;;4955814;29;20027;-66
2024/02/09 04:59:10;;;;;;;25.40;6.13;;;20.90;99.90;;;;;;4955900;29;20102;-67
2024/02/09 05:01:40;;;;;;;19.13;5.93;;;20.90;99.90;;;;;;4955586;29;20047;-65
2024/02/09 05:04:09;;;;;;;23.98;5.43;;;20.90;99.90;;;;;;4955775;29;20233;-65
2024/02/09 05:06:35;;;;;;;25.30;5.80;;;20.90;99.90;;;;;;4955038;28;20027;-66
2024/02/09 05:09:06;;;;;;;19.27;5.65;;;20.90;99.90;;;;;;4955697;29;20027;-66
2024/02/09 05:11:36;;;;;;;26.65;7.30;;;20.90;99.90;;;;;;4955628;29;20027;-66
2024/02/09 05:14:04;;;;;;;25.70;6.32;;;20.90;99.90;;;;;;4955521;29;20098;-65
2024/02/09 05:16:31;;;;;;;24.20;6.80;;;20.80;99.90;;;;;;4955468;29;20023;-66
2024/02/09 05:18:57;;;;;;;22.02;6.53;;;20.80;99.90;;;;;;4955507;29;20035;-67
2024/02/09 05:21:23;;;;;;;19.10;5.20;;;20.80;99.90;;;;;;4938247;29;20035;-67
2024/02/09 05:23:49;;;;;;;27.00;6.15;;;20.80;99.90;;;;;;4955487;29;20086;-65
2024/02/09 05:26:15;;;;;;;24.42;5.13;;;20.80;99.90;;;;;;4955486;29;20063;-65
2024/02/09 05:28:43;;;;;;;23.13;5.95;;;20.80;99.90;;;;;;4954942;29;20023;-65
2024/02/09 05:31:13;;;;;;;23.92;5.78;;;20.70;99.90;;;;;;4954755;29;20316;-66
2024/02/09 05:33:39;;;;;;;28.00;6.82;;;20.70;99.90;;;;;;4955002;29;20455;-65
2024/02/09 05:36:05;;;;;;;25.67;6.18;;;20.70;99.90;;;;;;4954910;29;20027;-64
2024/02/09 05:38:35;;;;;;;23.17;6.00;;;20.70;99.90;;;;;;4937771;29;20050;-63
2024/02/09 05:41:02;;;;;;;24.13;6.13;;;20.70;99.90;;;;;;4954977;29;20019;-65
2024/02/09 05:43:29;;;;;;;22.00;6.43;;;20.70;99.90;;;;;;4954906;29;20015;-65
2024/02/09 05:45:55;;;;;;;21.55;6.60;;;20.70;99.90;;;;;;4954864;29;20043;-67
2024/02/09 05:48:21;;;;;;;23.50;5.15;;;20.70;99.90;;;;;;4937615;29;20127;-66
2024/02/09 05:50:48;;;;;;;26.75;5.68;;;20.70;99.90;;;;;;4954991;29;20080;-66
2024/02/09 05:53:14;;;;;;;25.77;5.75;;;20.60;99.90;;;;;;4954852;29;20394;-66
2024/02/09 05:55:40;;;;;;;34.45;6.35;;;20.70;99.90;;;;;;4954657;29;20031;-66
2024/02/09 05:58:06;;;;;;;27.05;6.25;;;20.60;99.90;;;;;;4954786;29;20031;-66
2024/02/09 06:00:32;;;;;;;26.23;6.13;;;20.60;99.90;;;;;;4954079;29;20038;-67
2024/02/09 06:02:58;;;;;;;26.45;5.70;;;20.60;99.90;;;;;;4954258;29;20400;-67
2024/02/09 06:05:24;;;;;;;28.52;7.35;;;20.60;99.90;;;;;;4953228;29;20039;-68
2024/02/09 06:07:50;;;;;;;24.33;7.95;;;20.60;99.90;;;;;;4954976;29;20028;-67
2024/02/09 06:10:15;;;;;;;28.90;5.88;;;20.60;99.90;;;;;;4953685;29;20110;-67
2024/02/09 06:12:44;;;;;;;33.22;7.10;;;20.50;99.90;;;;;;4954576;29;20028;-68
2024/02/09 06:15:10;;;;;;;34.30;6.95;;;20.50;99.90;;;;;;4954579;29;20115;-67
2024/02/09 06:17:40;;;;;;;29.45;6.93;;;20.50;99.90;;;;;;4953785;28;20055;-67
2024/02/09 06:20:08;;;;;;;31.20;6.70;;;20.50;99.90;;;;;;4954541;29;20110;-67
2024/02/09 06:22:34;;;;;;;;;;;20.50;99.90;;;;;;4954819;29;20012;-67
2024/02/09 06:25:00;;;;;;;34.25;7.72;;;20.50;99.90;;;;;;4954205;29;20008;-66
2024/02/09 06:27:27;;;;;;;36.58;8.52;;;20.50;99.90;;;;;;4954262;29;20035;-66
2024/02/09 06:29:54;;;;;;;28.83;7.32;;;20.40;99.90;;;;;;4954389;29;20019;-66
2024/02/09 06:32:22;;;;;;;29.67;7.78;;;20.40;99.90;;;;;;4954537;29;20039;-67
2024/02/09 06:34:48;;;;;;;38.97;8.25;;;20.40;99.90;;;;;;4954584;29;20038;-66
2024/02/09 06:37:17;;;;;;;30.95;7.13;;;20.40;99.90;;;;;;4954222;29;20027;-66
2024/02/09 06:39:43;;;;;;;41.58;8.05;;;20.40;99.90;;;;;;4954207;29;20023;-66
2024/02/09 06:42:08;;;;;;;36.17;8.95;;;20.30;99.90;;;;;;4954162;29;20034;-67
2024/02/09 06:44:34;;;;;;;35.63;8.68;;;20.30;99.90;;;;;;4954039;29;20476;-66
2024/02/09 06:47:00;;;;;;;33.53;8.38;;;20.30;99.90;;;;;;4952802;29;20358;-68
2024/02/09 06:49:28;;;;;;;31.85;8.70;;;20.30;99.90;;;;;;4951884;29;20031;-68
2024/02/09 06:51:54;;;;;;;;;;;20.30;99.90;;;;;;4951935;29;20437;-67
2024/02/09 06:54:22;;;;;;;36.90;7.88;;;20.30;99.90;;;;;;4954085;29;19942;-65
2024/02/09 06:56:48;;;;;;;36.90;7.63;;;20.30;99.90;;;;;;4953814;29;20027;-63
2024/02/09 06:59:14;;;;;;;31.45;7.25;;;20.30;99.90;;;;;;4953480;29;20432;-63
2024/02/09 07:01:42;;;;;;;32.75;7.82;;;20.20;99.90;;;;;;4953339;29;20083;-63
2024/02/09 07:04:16;;;;;;;29.27;9.35;;;20.30;99.90;;;;;;4951764;29;20091;-62
2024/02/09 07:06:43;;;;;;;40.25;10.15;;;20.20;99.90;;;;;;4952624;29;20023;-62
2024/02/09 07:09:13;;;;;;;37.97;7.65;;;20.20;99.90;;;;;;4953976;29;20383;-61
2024/02/09 07:11:38;;;;;;;37.33;8.57;;;20.20;99.90;;;;;;4953845;29;20566;-67
2024/02/09 07:14:04;;;;;;;41.50;7.70;;;20.20;99.90;;;;;;4953728;29;20114;-66
2024/02/09 07:16:33;;;;;;;36.20;7.55;;;20.20;99.90;;;;;;4953935;29;20033;-64
2024/02/09 07:18:59;;;;;;;33.25;7.22;;;20.20;99.90;;;;;;4953821;29;20055;-67
2024/02/09 07:21:24;;;;;;;36.88;8.60;;;20.20;99.90;;;;;;4953905;29;20067;-65
2024/02/09 07:23:52;;;;;;;36.10;8.48;;;20.10;99.90;;;;;;4952483;29;20039;-67
2024/02/09 07:26:18;;;;;;;36.03;7.05;;;20.20;99.90;;;;;;4953731;29;20396;-66
2024/02/09 07:28:43;;;;;;;34.65;9.00;;;20.20;99.90;;;;;;4955146;28;20086;-67
2024/02/09 07:31:12;;;;;;;28.60;7.32;;;20.20;99.90;;;;;;4957517;29;20106;-68
2024/02/09 07:33:37;;;;;;;32.35;7.45;;;20.10;99.90;;;;;;4956197;29;20024;-68
2024/02/09 07:36:04;;;;;;;33.45;8.52;;;20.10;99.90;;;;;;4957403;29;20431;-68
2024/02/09 07:38:30;;;;;;;36.22;9.68;;;20.10;99.90;;;;;;4957252;29;20110;-66
2024/02/09 07:40:56;;;;;;;31.10;8.77;;;20.10;99.90;;;;;;4957513;29;20035;-66
2024/02/09 07:43:21;;;;;;;33.58;8.85;;;20.10;99.90;;;;;;4957145;29;20031;-66
2024/02/09 07:45:47;;;;;;;36.92;7.50;;;20.10;99.90;;;;;;4956973;29;20510;-66
2024/02/09 07:48:13;;;;;;;39.65;9.27;;;20.10;99.90;;;;;;4957095;29;20030;-68
2024/02/09 07:50:41;;;;;;;42.78;8.35;;;20.10;99.90;;;;;;4957029;29;20027;-66
2024/02/09 07:53:08;;;;;;;37.53;7.93;;;20.10;99.90;;;;;;4957100;29;20019;-68
2024/02/09 07:55:34;;;;;;;38.95;8.20;;;20.10;99.90;;;;;;4957087;29;20023;-66
2024/02/09 07:57:59;;;;;;;33.40;8.98;;;20.00;99.90;;;;;;4956837;29;20527;-66
2024/02/09 08:00:25;;;;;;;44.08;8.82;;;20.00;99.90;;;;;;4957009;29;20036;-65
2024/02/09 08:02:51;;;;;;;37.85;8.02;;;20.00;99.90;;;;;;4956607;29;20054;-64
2024/02/09 08:05:20;;;;;;;34.92;8.20;;;20.00;99.90;;;;;;4956725;29;20071;-64
2024/02/09 08:07:49;;;;;;;30.67;8.50;;;20.00;99.90;;;;;;4956799;29;20420;-66
2024/02/09 08:10:15;;;;;;;25.35;8.07;;;20.00;99.90;;;;;;4956559;29;20034;-65
2024/02/09 08:12:42;;;;;;;35.78;8.48;;;20.00;99.90;;;;;;4956801;29;20446;-65
2024/02/09 08:15:12;;;;;;;35.85;8.88;;;20.00;99.90;;;;;;4956658;29;20369;-69
2024/02/09 08:17:39;;;;;;;41.22;8.07;;;20.00;99.90;;;;;;4956624;29;20058;-66
2024/02/09 08:20:09;;;;;;;33.72;7.18;;;20.00;99.90;;;;;;4956766;29;20023;-68
2024/02/09 08:22:35;;;;;;;37.22;8.10;;;20.00;99.90;;;;;;4956579;29;20439;-66
2024/02/09 08:25:02;;;;;;;33.92;8.93;;;19.90;99.90;;;;;;4939186;29;20031;-66
2024/02/09 08:27:28;;;;;;;30.23;7.32;;;19.90;99.90;;;;;;4956614;29;20043;-66
2024/02/09 08:29:57;;;;;;;31.40;8.38;;;19.90;99.90;;;;;;4956416;29;20073;-67
2024/02/09 08:32:27;;;;;;;23.85;6.82;;;19.90;99.90;;;;;;4956285;29;20126;-66
2024/02/09 08:34:53;;;;;;;31.48;8.90;;;19.90;99.90;;;;;;4956403;29;20031;-66
2024/02/09 08:37:24;;;;;;;29.67;7.57;;;19.90;99.90;;;;;;4956185;29;20034;-66
2024/02/09 08:39:50;;;;;;;36.05;7.57;;;19.90;99.90;;;;;;4955222;28;20027;-65
2024/02/09 08:42:16;;;;;;;31.17;7.47;;;19.90;99.90;;;;;;4956362;29;20031;-63
2024/02/09 08:44:43;;;;;;;25.55;7.28;;;19.90;99.90;;;;;;4956090;29;20038;-68
2024/02/09 08:47:12;;;;;;;24.00;6.68;;;19.90;99.90;;;;;;4938722;29;20034;-69
2024/02/09 08:49:38;;;;;;;27.50;6.57;;;19.90;99.90;;;;;;4956201;29;20019;-69
2024/02/09 08:52:05;;;;;;;31.63;7.78;;;19.90;99.90;;;;;;4956146;29;20035;-70
2024/02/09 08:54:33;;;;;;;28.65;6.43;;;19.90;99.90;;;;;;4956483;29;20047;-69
2024/02/09 08:56:59;;;;;;;36.33;7.18;;;19.90;99.90;;;;;;4956081;29;20476;-69
2024/02/09 08:59:25;;;;;;;25.38;7.38;;;19.80;99.90;;;;;;4955900;29;20031;-70
2024/02/09 09:01:52;;;;;;;33.92;6.18;;;19.80;99.90;;;;;;4955652;29;20400;-67
2024/02/09 09:04:18;;;;;;;29.38;7.32;;;19.80;99.90;;;;;;4955671;29;20049;-68
2024/02/09 09:06:45;;;;;;;28.48;7.95;;;19.80;99.90;;;;;;4955701;29;20468;-67
2024/02/09 09:09:14;;;;;;;28.80;6.30;;;19.80;99.90;;;;;;4955718;29;20046;-67
2024/02/09 09:11:41;;;;;;;24.00;7.05;;;19.80;99.90;;;;;;4955659;29;20436;-67
2024/02/09 09:14:08;;;;;;;23.42;5.55;;;19.80;99.90;;;;;;4938413;29;20435;-68
2024/02/09 09:16:34;;;;;;;20.30;5.20;;;19.80;99.90;;;;;;4955502;29;20026;-70
2024/02/09 09:19:05;;;;;;;22.88;6.00;;;19.80;99.90;;;;;;4955707;29;20035;-68
2024/02/09 09:21:31;;;;;;;26.20;6.38;;;19.80;99.90;;;;;;4954261;29;20050;-67
2024/02/09 09:23:59;;;;;;;26.05;7.05;;;19.80;99.90;;;;;;4955322;29;20027;-67
2024/02/09 09:26:30;;;;;;;25.98;5.93;;;19.80;99.90;;;;;;4955274;29;20039;-67
2024/02/09 09:28:57;;;;;;;20.08;5.38;;;19.80;99.90;;;;;;4955227;29;20026;-67
2024/02/09 09:31:23;;;;;;;21.63;5.50;;;19.80;99.90;;;;;;4955112;29;20448;-66
2024/02/09 09:33:49;;;;;;;23.95;6.72;;;19.80;99.90;;;;;;4954951;29;20500;-66
2024/02/09 09:36:15;;;;;;;28.52;5.75;;;19.80;99.90;;;;;;4955037;29;20147;-66
2024/02/09 09:38:42;;;;;;;23.02;5.07;;;19.80;99.90;;;;;;4953812;29;20131;-68
2024/02/09 09:41:09;;;;;;;23.52;5.70;;;19.80;99.90;;;;;;4955142;29;20028;-65
2024/02/09 09:43:35;;;;;;;19.80;5.82;;;19.80;99.90;;;;;;4955188;29;20504;-66
2024/02/09 09:46:01;;;;;;;30.35;5.45;;;19.80;99.90;;;;;;4953708;29;20039;-67
2024/02/09 09:48:27;;;;;;;19.08;4.93;;;19.80;99.90;;;;;;4954891;29;20050;-66
2024/02/09 09:50:54;;;;;;;18.05;4.68;;;19.80;99.90;;;;;;4954762;28;20027;-67
2024/02/09 09:53:39;;;;;;;27.83;6.60;;;19.80;99.90;;;;;;4954913;29;20027;-66
2024/02/09 09:56:09;;;;;;;17.75;4.45;;;19.80;99.90;;;;;;4955002;29;20476;-66
2024/02/09 09:58:36;;;;;;;15.98;5.20;;;19.80;99.90;;;;;;4954886;29;20031;-66
2024/02/09 10:01:08;;;;;;;20.20;5.13;;;19.80;99.90;;;;;;4954785;29;20488;-66
2024/02/09 10:03:36;;;;;;;22.52;5.05;;;19.80;99.90;;;;;;4954893;29;20043;-67
2024/02/09 10:06:03;;;;;;;22.20;5.55;;;19.80;99.90;;;;;;4954928;29;20035;-66
2024/02/09 10:08:30;;;;;;;21.65;6.20;;;19.80;99.90;;;;;;4937357;29;20474;-66
2024/02/09 10:10:56;;;;;;;17.10;4.60;;;19.80;99.90;;;;;;4954510;29;20028;-66
2024/02/09 10:13:25;;;;;;;16.65;4.32;;;19.80;99.90;;;;;;4954227;29;20079;-65
2024/02/09 10:15:52;;;;;;;18.45;5.25;;;19.80;99.90;;;;;;4937244;29;20059;-66
2024/02/09 10:18:18;;;;;;;22.60;5.20;;;19.80;99.90;;;;;;4954584;29;20019;-67
2024/02/09 10:20:46;;;;;;;23.13;6.82;;;19.80;99.90;;;;;;4954456;29;20399;-66
2024/02/09 10:23:15;;;;;;;20.63;5.32;;;19.80;99.90;;;;;;4954418;29;20046;-63
2024/02/09 10:25:43;;;;;;;18.35;5.18;;;19.80;99.90;;;;;;4953436;29;20043;-66
2024/02/09 10:28:11;;;;;;;19.70;5.32;;;19.80;99.90;;;;;;4954637;29;20038;-65
2024/02/09 10:30:37;;;;;;;19.85;4.35;;;19.80;99.90;;;;;;4954452;29;20518;-65
2024/02/09 10:33:04;;;;;;;20.77;6.07;;;19.80;99.90;;;;;;4936892;29;20031;-65
2024/02/09 10:35:30;;;;;;;20.65;5.05;;;19.80;99.90;;;;;;4954185;29;20051;-64
2024/02/09 10:37:59;;;;;;;16.60;5.20;;;19.80;99.90;;;;;;4954150;29;20027;-64
2024/02/09 10:40:25;;;;;;;19.00;5.55;;;19.70;99.90;;;;;;4954292;29;20032;-67
2024/02/09 10:42:52;;;;;;;18.58;4.97;;;19.80;99.90;;;;;;4954273;29;20070;-67
2024/02/09 10:45:19;;;;;;;15.50;4.50;;;19.80;99.90;;;;;;4953959;29;20464;-68
2024/02/09 10:47:48;;;;;;;19.23;4.78;;;19.80;99.90;;;;;;4954188;29;20064;-68
2024/02/09 10:50:15;;;;;;;15.23;4.40;;;19.80;99.90;;;;;;4936797;29;20027;-67
2024/02/09 10:52:49;;;;;;;15.23;5.90;;;19.80;99.90;;;;;;4936806;29;20031;-66
2024/02/09 10:55:24;;;;;;;19.98;5.10;;;19.80;99.90;;;;;;4954051;29;20161;-67
2024/02/09 10:57:51;;;;;;;13.63;4.75;;;19.80;99.90;;;;;;4953852;29;20117;-68
2024/02/09 11:00:17;;;;;;;16.98;4.82;;;19.80;99.90;;;;;;4953968;29;20054;-67
2024/02/09 11:02:44;;;;;;;19.10;6.10;;;19.80;99.90;;;;;;4953844;28;20130;-69
2024/02/09 11:05:14;;;;;;;12.98;4.72;;;19.80;99.90;;;;;;4957866;29;20130;-68
2024/02/09 11:07:41;;;;;;;12.98;4.57;;;19.80;99.90;;;;;;4957973;29;20023;-66
2024/02/09 11:10:08;;;;;;;;;;;19.80;99.90;;;;;;4958510;29;20110;-65
2024/02/09 11:12:33;;;;;;;16.33;5.15;;;19.80;99.90;;;;;;4957018;29;19947;-66
2024/02/09 11:15:12;;;;;;;13.18;4.40;;;19.80;99.90;;;;;;4954929;29;20038;-65
2024/02/09 11:17:45;;;;;;;13.18;5.30;;;19.80;99.90;;;;;;4955096;29;20030;-65
2024/02/09 11:20:15;;;;;;;20.38;5.47;;;19.80;99.90;;;;;;4954998;29;20421;-61
2024/02/09 11:22:47;;;;;;;15.52;5.85;;;19.80;99.90;;;;;;4955005;29;20034;-63
2024/02/09 11:25:22;;;;;;;17.58;6.18;;;19.80;99.90;;;;;;4954711;29;20524;-64
2024/02/09 11:27:51;;;;;;;18.23;6.30;;;19.80;99.90;;;;;;4955323;29;20031;-63
2024/02/09 11:30:20;;;;;;;17.95;5.90;;;19.80;99.90;;;;;;4954006;29;20118;-69
2024/02/09 11:32:48;;;;;;;14.07;4.20;;;19.90;99.90;;;;;;4955186;29;20059;-68
2024/02/09 11:35:17;;;;;;;15.75;5.38;;;19.90;99.90;;;;;;4955068;29;20031;-67
2024/02/09 11:37:44;;;;;;;16.63;5.75;;;19.90;99.90;;;;;;4955228;29;20054;-69
2024/02/09 11:40:19;;;;;;;16.75;5.63;;;19.90;99.90;;;;;;4938046;29;20051;-63
2024/02/09 11:42:45;;;;;;;17.42;5.15;;;19.90;99.90;;;;;;4955256;29;20059;-63
2024/02/09 11:45:11;;;;;;;23.83;6.45;;;19.90;99.90;;;;;;4955235;29;20043;-63
2024/02/09 11:47:40;;;;;;;16.13;5.75;;;19.90;99.90;;;;;;4955180;29;20055;-65
2024/02/09 11:50:22;;;;;;;16.08;5.18;;;19.90;99.90;;;;;;4955635;29;20506;-65
2024/02/09 11:52:49;;;;;;;13.82;5.70;;;19.90;99.90;;;;;;4956792;29;20062;-66
2024/02/09 11:55:15;;;;;;;19.20;5.88;;;19.90;99.90;;;;;;4954986;29;20122;-64
2024/02/09 11:57:42;;;;;;;14.55;5.50;;;19.90;99.90;;;;;;4955369;29;20535;-64
2024/02/09 12:00:09;;;;;;;16.85;5.78;;;19.90;99.90;;;;;;4955277;29;20027;-65
2024/02/09 12:02:35;;;;;;;17.10;5.55;;;19.90;99.90;;;;;;4936380;29;20143;-64
2024/02/09 12:05:02;;;;;;;15.45;5.55;;;19.90;99.90;;;;;;4936233;29;20118;-62
2024/02/09 12:07:27;;;;;;;17.87;6.53;;;19.90;99.90;;;;;;4936352;29;20073;-62
2024/02/09 12:09:54;;;;;;;16.30;5.43;;;19.90;99.90;;;;;;4953682;29;20461;-60
2024/02/09 12:12:23;;;;;;;18.83;5.57;;;19.90;99.90;;;;;;4953612;29;20034;-59
2024/02/09 12:14:49;;;;;;;15.85;5.57;;;19.90;99.90;;;;;;4953604;28;20125;-64
2024/02/09 12:17:15;;;;;;;26.52;6.53;;;19.90;99.90;;;;;;4950836;29;20398;-67
2024/02/09 12:19:42;;;;;;;15.63;5.88;;;19.90;99.90;;;;;;4952828;29;20035;-67
2024/02/09 12:22:08;;;;;;;19.37;5.80;;;19.90;99.90;;;;;;4934857;29;20019;-67
2024/02/09 12:24:37;;;;;;;13.23;5.53;;;19.90;99.90;;;;;;4952164;29;20035;-62
2024/02/09 12:27:16;;;;;;;17.25;5.30;;;19.90;99.90;;;;;;4953326;29;20039;-64
2024/02/09 12:29:42;;;;;;;17.23;6.80;;;19.90;99.90;;;;;;4953537;29;20023;-66
2024/02/09 12:32:10;;;;;;;14.43;6.20;;;19.90;99.90;;;;;;4953321;29;20035;-64
2024/02/09 12:34:53;;;;;;;16.63;5.32;;;19.90;99.90;;;;;;4949983;29;20436;-60
2024/02/09 12:37:20;;;;;;;13.68;5.70;;;19.90;99.90;;;;;;4952241;29;20046;-60
2024/02/09 12:39:49;;;;;;;20.38;6.95;;;19.90;99.90;;;;;;4950099;28;20455;-60
2024/02/09 12:42:18;;;;;;;19.58;5.35;;;19.90;99.90;;;;;;4952658;29;20118;-60
2024/02/09 12:44:44;;;;;;;18.20;6.53;;;19.90;99.90;;;;;;4952343;29;20070;-59
2024/02/09 12:47:10;;;;;;;15.38;5.00;;;20.00;99.90;;;;;;4952505;29;20082;-60
2024/02/09 12:49:36;;;;;;;12.80;5.13;;;19.90;99.90;;;;;;4952460;29;20019;-59
2024/02/09 12:52:08;;;;;;;16.17;5.80;;;19.90;99.90;;;;;;4951794;29;20340;-60
2024/02/09 12:54:34;;;;;;;19.13;6.63;;;20.00;99.90;;;;;;4951338;29;20068;-61
2024/02/09 12:57:00;;;;;;;16.92;7.05;;;20.00;99.90;;;;;;4952366;29;20400;-59
2024/02/09 12:59:31;;;;;;;16.95;5.15;;;20.00;99.90;;;;;;4935230;29;20051;-61
2024/02/09 13:03:26;;;;;;;15.40;5.00;;;20.00;99.90;;;;;;5107318;27;20423;-61
2024/02/09 13:05:52;;;;;;;16.55;5.45;;;20.00;99.90;;;;;;5106153;28;20383;-59
2024/02/09 13:08:17;;;;;;;16.50;5.78;;;20.00;99.90;;;;;;5106526;28;20103;-60
2024/02/09 13:10:43;;;;;;;17.13;6.15;;;20.00;99.90;;;;;;5107431;28;20529;-60
2024/02/09 13:13:10;;;;;;;15.13;5.25;;;20.00;99.90;;;;;;5105755;28;20016;-59
2024/02/09 13:15:38;;;;;;;18.42;5.00;;;20.00;99.90;;;;;;5106499;28;20437;-61
2024/02/09 13:18:08;;;;;;;15.02;5.97;;;20.00;99.90;;;;;;5106701;28;20020;-61
2024/02/09 13:20:35;;;;;;;19.42;6.13;;;20.00;99.90;;;;;;5106924;28;20099;-60
2024/02/09 13:23:02;;;;;;;16.77;7.22;;;20.00;99.90;;;;;;5106942;28;20081;-61
2024/02/09 13:25:33;;;;;;;23.13;8.30;;;20.00;99.90;;;;;;5106892;28;20023;-60
2024/02/09 13:27:59;;;;;;;14.85;5.80;;;20.10;99.90;;;;;;5107087;28;20138;-60
2024/02/09 13:30:28;;;;;;;24.20;6.05;;;20.00;99.90;;;;;;5106465;28;20028;-60
2024/02/09 13:32:57;;;;;;;16.10;5.85;;;20.10;99.90;;;;;;5106936;28;20106;-60
2024/02/09 13:35:24;;;;;;;14.68;5.70;;;20.10;99.90;;;;;;5106778;28;20032;-61
2024/02/09 13:37:50;;;;;;;19.42;5.40;;;20.10;99.90;;;;;;5106808;28;20387;-62
2024/02/09 13:40:18;;;;;;;17.73;5.78;;;20.10;99.90;;;;;;5106777;28;20012;-63
2024/02/09 13:42:47;;;;;;;;;;;20.10;99.90;;;;;;5106197;28;20036;-62
2024/02/09 13:45:14;;;;;;;15.20;5.47;;;20.10;99.90;;;;;;5106092;28;20027;-61
2024/02/09 13:47:41;;;;;;;16.53;5.40;;;20.10;99.90;;;;;;5106604;28;20064;-62
2024/02/09 13:50:10;;;;;;;15.68;4.88;;;20.10;99.90;;;;;;5105440;28;20575;-64
2024/02/09 13:52:37;;;;;;;16.00;5.70;;;20.10;99.90;;;;;;5106538;28;20016;-63
2024/02/09 13:55:03;;;;;;;17.58;5.50;;;20.10;99.90;;;;;;5104460;28;20054;-64
2024/02/09 13:57:29;;;;;;;12.82;4.93;;;20.10;99.90;;;;;;5105271;28;20451;-63
2024/02/09 13:59:57;;;;;;;13.13;4.93;;;20.10;99.90;;;;;;5105383;28;20027;-63
2024/02/09 14:02:23;;;;;;;;;;;20.10;99.90;;;;;;5104912;28;20044;-63
2024/02/09 14:04:48;;;;;;;18.15;5.28;;;20.10;99.90;;;;;;5106572;28;19904;-59
2024/02/09 14:07:14;;;;;;;12.60;4.70;;;20.10;99.90;;;;;;5106227;28;20046;-60
2024/02/09 14:09:40;;;;;;;17.13;5.32;;;20.10;99.90;;;;;;5106347;28;20027;-60
2024/02/09 14:12:07;;;;;;;15.75;5.60;;;20.10;99.90;;;;;;5104882;28;20044;-61
2024/02/09 14:14:32;;;;;;;13.73;5.65;;;20.10;99.90;;;;;;5093788;28;20077;-61
2024/02/09 14:17:01;;;;;;;12.27;4.78;;;20.10;99.90;;;;;;5091480;28;20068;-60
2024/02/09 14:19:27;;;;;;;12.38;5.45;;;20.10;99.90;;;;;;5090609;28;20024;-61
2024/02/09 14:21:52;;;;;;;15.50;4.80;;;20.10;99.90;;;;;;5092433;28;20038;-62
2024/02/09 14:24:18;;;;;;;12.27;4.93;;;20.10;99.90;;;;;;5092699;28;20024;-61
2024/02/09 14:26:44;;;;;;;14.50;4.88;;;20.10;99.90;;;;;;5092323;28;20031;-61
2024/02/09 14:29:13;;;;;;;11.32;4.35;;;20.10;99.90;;;;;;5092296;28;20107;-61